Huvudsida
METAR-TAF:

METAR-TAF

Flygplatser :

Luxeuil-les-Bains, Frankrike

latitud: 47-47N, longitud: 006-21E, höjd: 278 m

Aktuellt väderrapport

Denna rapport gjordes för 19 minuter sedan, klockan 23:00 UTC
Vind 1 kt från nord/nordost
Temperatur -1°C
Fuktighet 93%
Tryck 1004 hPa
Sikt: 7000 m
Få moln på en höjd av 100 ft
Mulet på en höjd av 18000 ft

METAR: LFSX 152300Z AUTO 02001KT 7000 FEW001 OVC180 M01/M02 Q1004

Tid: 00:19 (23:19 UTC)

Väderprognos

Denna rapport gjordes för 9 timmar och 19 minuter sedan, klockan 14:00 UTC
Prognos gäller från 15 kl. 15 UTC till 16 kl. 15 UTC
Vind 9 kt från syd/sydväst
Sikt 10 km eller mer
Brutna moln på en höjd av 2000 ft
Temporärt
från 15 kl. 18 UTC till 16 kl. 08 UTC
Sikt: 4000 m
Mulet på en höjd av 600 ft
fuktdis
Sannolikhet 40% :
Temporärt
från 15 kl. 19 UTC till 15 kl. 23 UTC
Sikt: 0700 m
dimma

TAF: LFSX 151400Z 1515/1615 20009KT 9999 BKN020 TEMPO 1518/1608 4000 BR OVC006 PROB40 TEMPO 1519/1523 0700 FG

Aktuella väderrapporter och prognoser från 4000 flygplatser (METAR- och TAF-rapporter).

De tillgängliga stationerna syns som gula och röda prickar på kartan.

För musen över prickarna för att se namnen på stationerna.

Klicka sedan för att få väderrapporter och prognoser.

För att ändra kartan: Klicka på de gröna knapparna med ett svart kors på för att zooma in; den gröna knappen med ett streck på för att zooma ut; eller på de gröna pilarna för angränsande kartor.


METAR-TAF: